Time;durP1;ratioP1;P1;durP2;ratioP2;P2;SDS_P1;SDS_P2;PMS_P1;PMS_P2;Temp;Humidity;BMP_temperature;BMP_pressure;BME280_temperature;BME280_humidity;BME280_pressure;Samples;Min_cycle;Max_cycle;Signal;HPM_P1;HPM_P2
2021/04/02 00:00:23;;;;;;;12.80;4.25;;;;;;;15.68;27.23;72328.94;4987713;28;20034;-85
2021/04/02 00:02:50;;;;;;;11.15;3.65;;;;;;;14.95;27.51;72242.47;5001194;28;20040;-85
2021/04/02 00:05:19;;;;;;;10.27;2.83;;;;;;;15.28;27.12;72280.13;4989591;28;20133;-88
2021/04/02 00:07:47;;;;;;;8.57;3.23;;;;;;;15.64;27.64;72318.59;4979866;28;20049;-88
2021/04/02 00:10:19;;;;;;;10.38;3.28;;;;;;;14.30;27.37;72169.94;4989711;28;20030;-88
2021/04/02 00:12:47;;;;;;;11.93;4.15;;;;;;;15.93;27.56;72355.47;4977951;28;20544;-87
2021/04/02 00:15:19;;;;;;;7.65;4.40;;;;;;;15.10;26.96;72259.78;4981650;28;20041;-87
2021/04/02 00:17:46;;;;;;;12.98;3.20;;;;;;;15.29;27.48;72284.69;4989614;28;20030;-87
2021/04/02 00:20:17;;;;;;;11.05;3.50;;;;;;;15.37;27.31;72293.66;4993399;28;20056;-87
2021/04/02 00:22:44;;;;;;;;;;;;;;;15.78;27.30;72340.88;4981597;28;20037;-88
2021/04/02 00:25:13;;;;;;;13.98;3.97;;;;;;;14.94;27.05;72240.69;4983429;28;20591;-86
2021/04/02 00:27:40;;;;;;;11.93;2.90;;;;;;;14.20;27.49;72155.84;4996342;28;20511;-84
2021/04/02 00:30:20;;;;;;;13.00;4.25;;;;;;;15.90;27.43;72354.03;4986664;28;20019;-87
2021/04/02 00:32:47;;;;;;;11.95;3.83;;;;;;;14.57;27.51;72201.59;4986605;28;20034;-86
2021/04/02 00:35:15;;;;;;;13.85;3.58;;;;;;;14.66;27.22;72208.41;4969563;28;20586;-87
2021/04/02 00:37:42;;;;;;;28.02;4.82;;;;;;;16.16;27.23;72383.97;4992822;28;20507;-86
2021/04/02 00:40:23;;;;;;;10.45;3.50;;;;;;;15.32;26.68;72287.66;4995025;28;20057;-89
2021/04/02 00:42:53;;;;;;;14.20;3.22;;;;;;;15.53;26.92;72311.59;5007892;28;20042;-87
2021/04/02 00:45:21;;;;;;;13.52;3.63;;;;;;;15.58;27.35;72317.56;4987066;28;20568;-88
2021/04/02 00:47:50;;;;;;;12.18;4.78;;;;;;;15.93;27.46;72355.47;4986395;28;20377;-87
2021/04/02 00:50:32;;;;;;;14.77;3.45;;;;;;;16.52;26.81;72423.66;4981441;28;20050;-77
2021/04/02 00:52:59;;;;;;;17.02;4.88;;;;;;;14.41;26.92;72176.94;4991426;28;20514;-87
2021/04/02 00:55:26;;;;;;;12.13;4.10;;;;;;;15.21;26.72;72274.53;4979822;28;20068;-86
2021/04/02 00:57:53;;;;;;;7.68;3.03;;;;;;;15.78;27.04;72334.75;4985539;28;20042;-86
2021/04/02 01:00:20;;;;;;;19.00;4.03;;;;;;;15.30;27.35;72285.28;4994390;28;20022;-86
2021/04/02 01:02:47;;;;;;;9.60;3.22;;;;;;;15.72;27.11;72334.31;4972899;28;20045;-91
2021/04/02 01:05:23;;;;;;;23.10;4.15;;;;;;;15.89;26.65;72350.69;4976996;28;20030;-91
2021/04/02 01:07:58;;;;;;;14.10;3.47;;;;;;;15.42;27.01;72299.03;4991302;28;20030;-88
2021/04/02 01:10:30;;;;;;;9.27;3.38;;;;;;;15.41;27.43;72295.06;4991975;28;20130;-85
2021/04/02 01:13:09;;;;;;;15.80;4.05;;;;;;;16.00;26.92;72366.63;4982270;28;20084;-84
2021/04/02 01:16:09;;;;;;;15.27;3.70;;;;;;;16.78;26.88;72456.38;4984885;28;20034;-83
2021/04/02 01:18:50;;;;;;;14.95;4.57;;;;;;;16.43;26.97;72415.66;4993105;28;20037;-83
2021/04/02 01:21:38;;;;;;;8.30;3.22;;;;;;;16.68;26.60;72444.38;4975842;28;20499;-83
2021/04/02 01:24:16;;;;;;;13.73;3.40;;;;;;;17.09;26.59;72491.69;4977270;28;20041;-83
2021/04/02 01:27:05;;;;;;;10.20;3.75;;;;;;;17.09;26.17;72492.28;4979354;28;20173;-83
2021/04/02 01:29:45;;;;;;;14.50;4.15;;;;;;;17.11;26.60;72491.28;4982018;28;20031;-85
2021/04/02 01:32:18;;;;;;;15.55;3.20;;;;;;;17.12;26.73;72492.50;4979640;28;20026;-84
2021/04/02 01:34:49;;;;;;;15.85;3.10;;;;;;;16.88;26.31;72464.34;4976127;28;20112;-84
2021/04/02 01:37:41;;;;;;;18.02;3.38;;;;;;;17.71;25.93;72560.16;4993515;28;20500;-85
2021/04/02 01:40:11;;;;;;;9.57;3.78;;;;;;;17.61;26.06;72552.16;4984694;28;20042;-85
2021/04/02 01:42:41;;;;;;;9.25;3.30;;;;;;;16.75;26.21;72447.22;4975801;28;20038;-85
2021/04/02 01:45:10;;;;;;;;;;;;;;;17.77;26.66;72567.34;4993440;28;20030;-85
2021/04/02 01:47:39;;;;;;;17.52;3.75;;;;;;;16.66;26.34;72442.00;4975612;28;19920;-80
2021/04/02 01:50:11;;;;;;;10.98;4.38;;;;;;;17.49;27.13;72530.03;4991723;28;20507;-79
2021/04/02 01:52:39;;;;;;;12.85;3.22;;;;;;;17.54;26.63;72541.00;4991632;28;20034;-79
2021/04/02 01:55:09;;;;;;;14.73;3.47;;;;;;;17.48;26.30;72531.03;4990464;28;20018;-78
2021/04/02 01:57:38;;;;;;;13.52;3.45;;;;;;;17.68;26.25;72559.94;4990962;28;20034;-78
2021/04/02 02:00:12;;;;;;;15.00;4.78;;;;;;;17.52;26.52;72535.81;4990888;28;20392;-79
2021/04/02 02:02:41;;;;;;;11.15;4.50;;;;;;;17.36;26.60;72517.84;4990990;28;20025;-79
2021/04/02 02:05:10;;;;;;;13.70;3.50;;;;;;;17.82;25.87;72576.09;4988643;28;20026;-79
2021/04/02 02:07:42;;;;;;;10.88;3.72;;;;;;;17.90;26.44;72579.53;4991208;28;20033;-77
2021/04/02 02:10:11;;;;;;;16.15;4.05;;;;;;;17.81;26.74;72568.75;4988718;28;20026;-79
2021/04/02 02:12:40;;;;;;;17.40;3.88;;;;;;;17.99;26.23;72592.47;4973112;28;20050;-78
2021/04/02 02:15:12;;;;;;;13.60;4.35;;;;;;;17.95;26.24;72591.06;4988434;28;20480;-79
2021/04/02 02:17:53;;;;;;;21.42;4.13;;;;;;;18.14;26.36;72607.69;4991816;28;20114;-79
2021/04/02 02:20:21;;;;;;;11.23;4.68;;;;;;;18.14;26.00;72607.09;4990644;28;20117;-79
2021/04/02 02:22:48;;;;;;;13.43;3.47;;;;;;;18.13;26.02;72608.69;4991809;28;20033;-77
2021/04/02 02:25:15;;;;;;;14.82;5.45;;;;;;;18.29;25.75;72627.22;4988571;28;20041;-78
2021/04/02 02:27:42;;;;;;;21.67;4.70;;;;;;;17.42;26.54;72529.97;4972568;28;20027;-78
2021/04/02 02:30:18;;;;;;;14.05;4.30;;;;;;;17.62;26.02;72549.97;4972407;28;20070;-77
2021/04/02 02:32:44;;;;;;;20.17;4.82;;;;;;;18.27;26.37;72627.63;4972540;28;20062;-78
2021/04/02 02:35:12;;;;;;;17.35;3.90;;;;;;;18.10;25.99;72607.84;4972277;28;20027;-77
2021/04/02 02:37:44;;;;;;;10.20;3.63;;;;;;;18.36;25.60;72638.41;4975032;28;20042;-83
2021/04/02 02:40:16;;;;;;;9.73;3.08;;;;;;;17.80;26.00;72568.16;4974846;28;20033;-85
2021/04/02 02:42:44;;;;;;;13.75;4.82;;;;;;;17.28;25.93;72508.28;4958100;28;20109;-85
2021/04/02 02:45:13;;;;;;;6.75;3.83;;;;;;;17.97;25.69;72593.47;4957128;28;20031;-84
2021/04/02 02:47:41;;;;;;;13.90;2.80;;;;;;;18.15;26.02;72608.91;4959652;28;20058;-85
2021/04/02 02:50:13;;;;;;;10.63;3.83;;;;;;;18.02;26.23;72593.28;4991195;28;20061;-84
2021/04/02 02:52:41;;;;;;;12.98;4.18;;;;;;;18.51;26.35;72652.41;4991537;28;20038;-85
2021/04/02 02:55:10;;;;;;;17.73;4.60;;;;;;;18.03;26.53;72600.06;4975154;28;20023;-84
2021/04/02 02:57:39;;;;;;;17.00;4.38;;;;;;;18.79;26.05;72684.75;4957865;28;20074;-84
2021/04/02 03:00:16;;;;;;;13.85;4.18;;;;;;;18.49;25.87;72652.78;4972563;28;20117;-85
2021/04/02 03:02:47;;;;;;;12.77;4.05;;;;;;;18.88;26.29;72692.75;4954727;28;20483;-84
2021/04/02 03:05:21;;;;;;;15.02;3.80;;;;;;;18.40;26.54;72640.41;4972593;28;20058;-85
2021/04/02 03:07:54;;;;;;;17.50;4.97;;;;;;;18.55;26.28;72657.19;4956985;28;20141;-84
2021/04/02 03:10:22;;;;;;;19.50;4.78;;;;;;;18.68;26.21;72672.16;4988890;28;20022;-85
2021/04/02 03:12:50;;;;;;;18.27;5.82;;;;;;;18.51;26.69;72649.63;5005104;28;20057;-85
2021/04/02 03:15:19;;;;;;;22.80;3.72;;;;;;;18.13;26.69;72606.47;4994638;28;20034;-87
2021/04/02 03:17:58;;;;;;;16.30;4.97;;;;;;;18.58;26.53;72658.59;4985040;28;20038;-88
2021/04/02 03:20:26;;;;;;;20.50;4.82;;;;;;;18.19;26.87;72616.47;4983331;28;20069;-87
2021/04/02 03:22:55;;;;;;;12.00;4.15;;;;;;;18.58;27.42;72658.00;4980995;28;20061;-88
2021/04/02 03:25:25;;;;;;;18.13;4.32;;;;;;;17.61;26.89;72543.81;4974233;28;20184;-82
2021/04/02 03:27:53;;;;;;;13.20;4.55;;;;;;;18.33;27.20;72634.81;4988781;28;20093;-85
2021/04/02 03:30:22;;;;;;;20.30;4.43;;;;;;;18.86;26.72;72695.94;4994728;28;20488;-92
2021/04/02 03:32:54;;;;;;;25.73;4.93;;;;;;;17.90;27.27;72585.09;4972838;28;20118;-88
2021/04/02 03:35:22;;;;;;;19.42;5.32;;;;;;;18.38;26.95;72640.81;4957168;28;20033;-89
2021/04/02 03:37:51;;;;;;;16.25;5.20;;;;;;;18.48;26.70;72648.81;4956203;28;20027;-85
2021/04/02 03:40:21;;;;;;;24.80;5.20;;;;;;;18.29;26.49;72630.00;4988019;28;20014;-83
2021/04/02 03:42:53;;;;;;;18.80;7.00;;;;;;;18.41;27.10;72638.84;4973442;28;20394;-83
2021/04/02 03:45:22;;;;;;;14.48;4.05;;;;;;;18.62;27.43;72665.59;4990041;28;20027;-84
2021/04/02 03:47:52;;;;;;;24.13;5.50;;;;;;;18.23;26.82;72622.84;4990559;28;20041;-82
2021/04/02 03:50:21;;;;;;;21.98;5.03;;;;;;;18.17;27.08;72614.06;4990764;28;20133;-84
2021/04/02 03:53:06;;;;;;;18.83;5.45;;;;;;;18.27;27.21;72628.25;4991365;28;20066;-83
2021/04/02 03:55:33;;;;;;;21.88;5.25;;;;;;;18.62;27.40;72662.81;4973590;28;20100;-83
2021/04/02 03:58:02;;;;;;;19.85;5.35;;;;;;;18.90;27.25;72700.72;4990977;28;20388;-82
2021/04/02 04:00:35;;;;;;;23.65;5.32;;;;;;;18.94;26.90;72702.72;4991021;28;20079;-83
2021/04/02 04:03:05;;;;;;;14.35;5.63;;;;;;;19.07;26.57;72720.53;4984478;28;20027;-83
2021/04/02 04:05:34;;;;;;;14.27;6.05;;;;;;;18.61;27.03;72667.19;4972730;28;20100;-82
2021/04/02 04:08:02;;;;;;;21.38;5.53;;;;;;;18.68;26.55;72675.56;4991170;28;20034;-84
2021/04/02 04:10:30;;;;;;;13.10;4.97;;;;;;;19.06;26.35;72713.16;4990210;28;20121;-82
2021/04/02 04:12:59;;;;;;;13.20;3.90;;;;;;;18.59;26.41;72661.97;4990512;28;20038;-82
2021/04/02 04:15:28;;;;;;;16.63;4.85;;;;;;;18.65;26.69;72671.97;4990227;28;20034;-83
2021/04/02 04:17:56;;;;;;;17.90;5.65;;;;;;;19.09;26.06;72716.75;4972417;28;20026;-81
2021/04/02 04:20:25;;;;;;;13.23;4.90;;;;;;;18.83;26.58;72686.78;4973205;28;20033;-82
2021/04/02 04:22:53;;;;;;;16.50;5.82;;;;;;;19.45;26.50;72764.28;4990655;28;20029;-83
2021/04/02 04:25:24;;;;;;;18.70;5.57;;;;;;;18.78;26.42;72686.34;4994203;28;20117;-84
2021/04/02 04:27:54;;;;;;;29.83;5.13;;;;;;;19.17;26.73;72731.91;4976518;28;20023;-83
2021/04/02 04:30:23;;;;;;;21.08;5.68;;;;;;;19.75;26.28;72792.88;4994077;28;20026;-82
2021/04/02 04:32:52;;;;;;;15.65;5.47;;;;;;;18.50;26.92;72654.59;4994717;28;20109;-83
2021/04/02 04:35:19;;;;;;;15.48;4.30;;;;;;;19.03;27.09;72715.13;4994623;28;20027;-83
2021/04/02 04:37:47;;;;;;;12.90;4.65;;;;;;;19.59;26.60;72780.47;4976780;28;20109;-83
2021/04/02 04:40:17;;;;;;;20.38;6.85;;;;;;;18.49;27.01;72647.22;4994821;28;20010;-83
2021/04/02 04:42:46;;;;;;;25.75;5.65;;;;;;;18.48;27.08;72648.81;4980289;28;20035;-83
2021/04/02 04:45:18;;;;;;;18.90;5.00;;;;;;;19.55;26.87;72770.69;4994239;28;20117;-84
2021/04/02 04:47:45;;;;;;;15.02;6.72;;;;;;;18.76;26.61;72681.16;4976515;28;20026;-84
2021/04/02 04:50:14;;;;;;;11.57;4.20;;;;;;;19.55;26.61;72770.69;4987426;28;20153;-84
2021/04/02 04:52:48;;;;;;;15.25;6.90;;;;;;;18.42;26.89;72642.22;4974556;28;20039;-83
2021/04/02 04:55:16;;;;;;;14.48;5.10;;;;;;;18.84;27.25;72693.53;4976059;28;20042;-83
2021/04/02 04:57:45;;;;;;;18.63;5.28;;;;;;;18.78;27.04;72683.56;4976311;28;20030;-83
2021/04/02 05:00:16;;;;;;;16.60;7.18;;;;;;;19.66;26.44;72788.25;4976875;28;20033;-84
2021/04/02 05:02:45;;;;;;;19.55;6.20;;;;;;;19.46;26.48;72764.88;4995529;28;20026;-83
2021/04/02 05:05:27;;;;;;;17.45;5.32;;;;;;;19.20;26.45;72729.91;4978020;28;20062;-83
2021/04/02 05:07:57;;;;;;;16.38;6.10;;;;;;;19.91;26.42;72817.06;4993844;28;20090;-84
2021/04/02 05:10:24;;;;;;;25.50;6.60;;;;;;;19.01;26.68;72710.50;4994178;28;20503;-83
2021/04/02 05:12:53;;;;;;;23.15;6.43;;;;;;;19.52;26.27;72767.09;4977077;28;20039;-82
2021/04/02 05:15:21;;;;;;;24.77;6.72;;;;;;;19.96;26.25;72817.47;4976441;28;20026;-83
2021/04/02 05:17:48;;;;;;;16.77;5.68;;;;;;;19.42;26.81;72760.69;4992333;28;20483;-82
2021/04/02 05:20:15;;;;;;;23.83;7.80;;;;;;;19.37;26.47;72751.91;4996585;28;20093;-83
2021/04/02 05:22:42;;;;;;;13.95;5.63;;;;;;;20.14;26.08;72844.03;4996428;28;20089;-83
2021/04/02 05:25:09;;;;;;;13.13;5.90;;;;;;;20.45;26.36;72880.03;4995601;28;20026;-82
2021/04/02 05:27:36;;;;;;;19.95;7.30;;;;;;;19.42;25.96;72758.50;4975453;28;20506;-84
2021/04/02 05:30:05;;;;;;;16.83;6.05;;;;;;;19.56;25.92;72774.09;4993176;28;20030;-83
2021/04/02 05:32:32;;;;;;;18.67;7.47;;;;;;;19.79;26.64;72803.25;4993264;28;20476;-83
2021/04/02 05:34:58;;;;;;;19.85;7.30;;;;;;;19.20;26.05;72734.91;4995941;28;20030;-83
2021/04/02 05:37:25;;;;;;;24.45;7.90;;;;;;;19.68;26.36;72791.25;4997108;28;20054;-83
2021/04/02 05:39:52;;;;;;;19.25;6.72;;;;;;;20.81;25.72;72915.25;4997417;28;20105;-83
2021/04/02 05:42:24;;;;;;;24.13;7.13;;;;;;;20.99;25.78;72939.69;4995371;28;20027;-82
2021/04/02 05:44:52;;;;;;;17.90;5.95;;;;;;;20.28;25.84;72857.47;4975336;28;20030;-82
2021/04/02 05:47:20;;;;;;;18.35;7.03;;;;;;;19.56;25.97;72777.47;4992539;28;20030;-82
2021/04/02 05:49:49;;;;;;;28.27;7.20;;;;;;;19.91;26.08;72814.25;4975247;28;20037;-84
2021/04/02 05:52:17;;;;;;;17.77;7.22;;;;;;;20.12;26.31;72838.88;4993608;28;20086;-83
2021/04/02 05:54:47;;;;;;;19.02;6.38;;;;;;;19.53;26.42;72770.47;4992694;28;20034;-83
2021/04/02 05:57:15;;;;;;;27.55;7.75;;;;;;;19.26;26.23;72737.13;4975767;28;20099;-82
2021/04/02 05:59:43;;;;;;;15.80;7.78;;;;;;;19.86;26.56;72808.25;4992482;28;20053;-83
2021/04/02 06:02:14;;;;;;;23.23;8.88;;;;;;;19.49;26.44;72769.06;4975346;28;20893;-84
2021/04/02 06:04:41;;;;;;;20.58;7.03;;;;;;;20.41;26.57;72874.63;4975728;28;20336;-83
2021/04/02 06:07:08;;;;;;;13.35;6.13;;;;;;;20.15;26.39;72839.06;4974771;28;20427;-83
2021/04/02 06:09:35;;;;;;;19.15;6.60;;;;;;;20.44;25.92;72875.47;4974659;28;20080;-83
2021/04/02 06:12:02;;;;;;;20.63;8.10;;;;;;;20.28;26.15;72854.66;4992246;28;20014;-84
2021/04/02 06:14:29;;;;;;;22.88;7.15;;;;;;;20.08;26.28;72834.66;4992234;28;20026;-83
2021/04/02 06:16:56;;;;;;;20.08;8.32;;;;;;;19.65;26.07;72781.47;4991973;28;20060;-83
2021/04/02 06:19:23;;;;;;;24.67;7.90;;;;;;;19.76;26.44;72794.69;4974715;28;20022;-84
2021/04/02 06:21:55;;;;;;;22.10;7.20;;;;;;;19.90;26.35;72815.84;4974558;28;20092;-83
2021/04/02 06:24:41;;;;;;;15.35;7.97;;;;;;;20.53;26.59;72889.03;4974578;28;20093;-82
2021/04/02 06:27:13;;;;;;;20.77;8.98;;;;;;;20.16;26.46;72846.47;4974732;28;20034;-83
2021/04/02 06:29:44;;;;;;;29.90;7.90;;;;;;;20.12;27.24;72841.03;4993255;28;20061;-85
2021/04/02 06:32:34;;;;;;;18.15;8.43;;;;;;;20.07;27.37;72832.84;4995849;28;20023;-84
2021/04/02 06:35:08;;;;;;;18.30;8.68;;;;;;;19.48;27.94;72767.88;4993941;28;20114;-83
2021/04/02 06:37:36;;;;;;;17.48;8.40;;;;;;;20.19;27.96;72849.44;4975100;28;20056;-83
2021/04/02 06:40:14;;;;;;;22.35;8.13;;;;;;;20.22;28.27;72850.25;4992022;28;20030;-82
2021/04/02 06:42:45;;;;;;;23.15;8.02;;;;;;;19.14;27.73;72723.34;4991942;28;20030;-83
2021/04/02 06:45:13;;;;;;;20.65;8.00;;;;;;;19.43;28.47;72761.88;4991692;28;20448;-83
2021/04/02 06:47:42;;;;;;;25.85;8.57;;;;;;;19.27;27.88;72740.50;4990869;28;20034;-84
2021/04/02 06:50:22;;;;;;;17.27;7.57;;;;;;;20.14;27.88;72838.47;4991859;28;20046;-83
2021/04/02 06:52:57;;;;;;;;;;;;;;;20.29;28.11;72858.06;4990644;28;20416;-83
2021/04/02 06:55:26;;;;;;;32.58;8.98;;;;;;;20.15;27.79;72841.88;4991679;28;19928;-83
2021/04/02 06:57:55;;;;;;;19.67;9.70;;;;;;;20.19;27.75;72847.25;4991578;28;20041;-83
2021/04/02 07:00:27;;;;;;;17.42;7.13;;;;;;;19.89;28.21;72809.06;4978187;28;20685;-83
2021/04/02 07:02:55;;;;;;;19.15;6.85;;;;;;;20.05;28.13;72830.47;4994372;28;20113;-83
2021/04/02 07:05:25;;;;;;;22.25;8.15;;;;;;;20.27;27.83;72859.06;4974632;28;20062;-84
2021/04/02 07:08:07;;;;;;;22.38;8.13;;;;;;;20.29;27.76;72858.66;4973930;28;20514;-84
2021/04/02 07:10:39;;;;;;;21.63;8.40;;;;;;;20.42;27.74;72875.84;4973856;28;20065;-82
2021/04/02 07:13:10;;;;;;;18.25;6.57;;;;;;;20.12;27.77;72841.03;4992696;28;20031;-83
2021/04/02 07:15:39;;;;;;;18.80;8.00;;;;;;;19.91;28.30;72812.06;4975869;28;20113;-83
2021/04/02 07:18:09;;;;;;;22.63;8.85;;;;;;;20.24;29.13;72855.44;4978474;28;20460;-83
2021/04/02 07:20:36;;;;;;;32.13;9.85;;;;;;;19.27;28.73;72741.09;4977399;28;20544;-84
2021/04/02 07:23:04;;;;;;;21.42;7.03;;;;;;;19.85;29.37;72807.06;5006624;28;20054;-85
2021/04/02 07:25:32;;;;;;;20.75;6.72;;;;;;;19.95;29.75;72819.06;5013130;28;20110;-81
2021/04/02 07:28:00;;;;;;;17.50;8.20;;;;;;;20.27;30.51;72859.06;5010969;28;20022;-79
2021/04/02 07:30:29;;;;;;;23.05;6.82;;;;;;;20.26;30.16;72855.03;5010777;28;20021;-82
2021/04/02 07:33:04;;;;;;;26.52;8.68;;;;;;;20.10;30.17;72836.47;5006442;28;20526;-78
2021/04/02 07:35:31;;;;;;;28.02;8.15;;;;;;;20.12;30.45;72838.88;5011247;28;20026;-82
2021/04/02 07:38:00;;;;;;;19.40;8.80;;;;;;;19.83;30.29;72808.66;4994013;28;20021;-77
2021/04/02 07:40:35;;;;;;;24.08;7.25;;;;;;;19.72;30.93;72792.66;5010205;28;20022;-76
2021/04/02 07:43:06;;;;;;;13.45;6.57;;;;;;;19.28;31.88;72745.09;5010380;28;20037;-76
2021/04/02 07:45:35;;;;;;;21.00;7.85;;;;;;;19.51;33.08;72771.47;5010472;28;20026;-78
2021/04/02 07:48:17;;;;;;;25.77;10.05;;;;;;;19.35;34.15;72746.72;4990753;28;20030;-78
2021/04/02 07:50:50;;;;;;;22.80;11.13;;;;;;;19.11;34.28;72719.13;4990644;28;20054;-79
2021/04/02 07:53:28;;;;;;;24.58;9.48;;;;;;;19.00;34.27;72712.72;4986887;28;20038;-78
2021/04/02 07:56:17;;;;;;;23.23;8.35;;;;;;;19.20;33.75;72735.50;5010184;28;20034;-80
2021/04/02 07:58:52;;;;;;;25.48;8.90;;;;;;;18.83;33.60;72690.16;5011620;28;20119;-78
2021/04/02 08:01:24;;;;;;;18.52;9.85;;;;;;;18.49;33.39;72650.63;5014067;28;20034;-79
2021/04/02 08:03:54;;;;;;;19.05;8.52;;;;;;;18.00;34.10;72596.47;5014078;28;20808;-80
2021/04/02 08:06:38;;;;;;;25.33;8.93;;;;;;;18.27;34.90;72622.06;5013686;28;20144;-80
2021/04/02 08:09:09;;;;;;;20.95;9.52;;;;;;;17.80;34.33;72573.72;5009673;28;20041;-80
2021/04/02 08:11:46;;;;;;;19.60;9.57;;;;;;;17.88;32.98;72577.13;4994548;28;20103;-80
2021/04/02 08:14:14;;;;;;;17.52;8.07;;;;;;;18.05;32.58;72602.47;4994429;28;20069;-79
2021/04/02 08:16:54;;;;;;;27.50;11.02;;;;;;;17.83;33.45;72573.91;4994545;28;20050;-80
2021/04/02 08:19:29;;;;;;;26.95;8.55;;;;;;;18.00;33.48;72597.06;4994215;28;20061;-80
2021/04/02 08:22:02;;;;;;;26.92;8.63;;;;;;;18.07;33.83;72604.88;4994248;28;20027;-80
2021/04/02 08:24:32;;;;;;;21.55;9.43;;;;;;;17.15;34.62;72498.88;4999382;28;20034;-80
2021/04/02 08:26:59;;;;;;;26.38;11.25;;;;;;;18.17;33.57;72616.84;5013458;28;20030;-78
2021/04/02 08:29:29;;;;;;;20.45;8.85;;;;;;;18.04;33.20;72601.88;5013708;28;20034;-79
2021/04/02 08:32:00;;;;;;;24.65;8.80;;;;;;;18.27;33.64;72622.66;5013635;28;20495;-80
2021/04/02 08:34:30;;;;;;;19.40;9.15;;;;;;;17.02;34.28;72483.31;5013581;28;20117;-79
2021/04/02 08:36:59;;;;;;;24.83;8.43;;;;;;;17.61;34.97;72551.56;5013303;28;20030;-79
2021/04/02 08:39:27;;;;;;;23.83;11.70;;;;;;;17.52;35.01;72541.38;4995727;28;20030;-79
2021/04/02 08:42:01;;;;;;;26.83;10.95;;;;;;;18.23;34.69;72620.66;5012750;28;20034;-80
2021/04/02 08:44:48;;;;;;;17.83;9.27;;;;;;;18.00;34.82;72593.69;5013100;28;20046;-80
2021/04/02 08:47:19;;;;;;;19.92;10.10;;;;;;;18.31;34.89;72632.44;5012398;28;20026;-79
2021/04/02 08:49:49;;;;;;;18.95;8.43;;;;;;;17.81;34.12;72572.13;5012571;28;20522;-80
2021/04/02 08:52:19;;;;;;;24.65;8.45;;;;;;;18.05;33.20;72599.69;5006759;28;20052;-80
2021/04/02 08:54:47;;;;;;;12.38;8.38;;;;;;;18.19;34.12;72616.47;4976094;28;20037;-81
2021/04/02 08:57:15;;;;;;;19.55;7.95;;;;;;;18.07;34.29;72601.50;5001057;28;20116;-79
2021/04/02 08:59:45;;;;;;;18.52;9.05;;;;;;;17.27;34.63;72512.63;5013118;28;20160;-80
2021/04/02 09:02:16;;;;;;;27.20;8.88;;;;;;;18.19;35.53;72616.47;5012132;28;20026;-80
2021/04/02 09:04:45;;;;;;;32.10;9.73;;;;;;;17.93;35.56;72588.66;5013046;28;20064;-78
2021/04/02 09:07:12;;;;;;;19.77;8.95;;;;;;;17.85;35.60;72574.13;5016416;28;20034;-88
2021/04/02 09:09:45;;;;;;;21.83;8.63;;;;;;;17.67;36.19;72558.13;4977434;28;20088;-80
2021/04/02 09:12:16;;;;;;;28.98;10.65;;;;;;;17.61;36.20;72549.38;4997790;28;20392;-80
2021/04/02 09:14:52;;;;;;;23.63;10.13;;;;;;;17.96;36.22;72592.28;5012767;28;20033;-79
2021/04/02 09:17:24;;;;;;;30.15;11.02;;;;;;;18.00;36.20;72597.06;5012509;28;20105;-79
2021/04/02 09:19:53;;;;;;;21.65;8.93;;;;;;;17.70;36.18;72561.75;5013058;28;20040;-81
2021/04/02 09:22:24;;;;;;;24.65;10.00;;;;;;;18.04;36.27;72599.09;5010985;28;20513;-79
2021/04/02 09:24:51;;;;;;;23.15;9.60;;;;;;;18.08;36.14;72606.06;5012595;28;20454;-78
2021/04/02 09:27:20;;;;;;;24.40;10.05;;;;;;;17.33;34.98;72513.66;5012558;28;20120;-79
2021/04/02 09:29:55;;;;;;;24.40;11.48;;;;;;;18.13;34.39;72612.03;5012634;28;20072;-80
2021/04/02 09:32:27;;;;;;;30.67;11.40;;;;;;;17.94;34.92;72589.28;5006558;28;20038;-83
2021/04/02 09:34:55;;;;;;;19.45;10.13;;;;;;;18.19;34.75;72619.25;4975334;28;20487;-79
2021/04/02 09:37:22;;;;;;;33.35;11.13;;;;;;;17.43;35.92;72527.81;4992956;28;20030;-79
2021/04/02 09:39:49;;;;;;;27.20;12.10;;;;;;;17.60;36.47;72548.16;5009182;28;20037;-79
2021/04/02 09:42:17;;;;;;;25.23;13.35;;;;;;;16.95;37.63;72475.50;4994457;28;20037;-77
2021/04/02 09:44:48;;;;;;;22.13;10.38;;;;;;;17.39;37.50;72526.41;5010061;28;20102;-79
2021/04/02 09:47:15;;;;;;;25.88;11.35;;;;;;;17.28;38.06;72513.84;5008857;28;20072;-79
2021/04/02 09:49:44;;;;;;;23.80;12.70;;;;;;;17.27;37.63;72512.03;5010032;28;20026;-78
2021/04/02 09:52:11;;;;;;;39.58;13.45;;;;;;;16.78;39.31;72453.59;5010717;28;20053;-79
2021/04/02 09:54:38;;;;;;;27.65;13.35;;;;;;;16.82;39.05;72460.56;5012440;28;20034;-79
2021/04/02 09:57:09;;;;;;;36.78;14.32;;;;;;;16.68;40.67;72441.59;5017610;28;20530;-79
2021/04/02 09:59:38;;;;;;;25.38;14.57;;;;;;;16.34;41.49;72404.91;5011893;28;20120;-78
2021/04/02 10:02:05;;;;;;;40.03;15.88;;;;;;;16.18;42.47;72386.97;5010957;28;20026;-79
2021/04/02 10:04:32;;;;;;;31.80;15.80;;;;;;;16.61;44.20;72433.22;5010807;28;20037;-79
2021/04/02 10:07:01;;;;;;;32.13;15.85;;;;;;;16.64;45.11;72436.84;5011557;28;20483;-78
2021/04/02 10:09:29;;;;;;;32.03;17.55;;;;;;;16.65;44.38;72435.84;5011747;28;20076;-79
2021/04/02 10:11:56;;;;;;;37.70;16.85;;;;;;;16.68;43.47;72438.84;5010912;28;20513;-80
2021/04/02 10:14:22;;;;;;;44.83;16.15;;;;;;;16.66;43.77;72442.59;5010986;28;20060;-79
2021/04/02 10:16:49;;;;;;;43.25;16.75;;;;;;;16.91;42.89;72470.72;5002229;28;20494;-78
2021/04/02 10:19:17;;;;;;;33.70;15.93;;;;;;;16.73;45.38;72447.00;5011506;28;20055;-79
2021/04/02 10:21:44;;;;;;;30.83;19.40;;;;;;;16.38;45.97;72410.28;5011157;28;20033;-79
2021/04/02 10:24:11;;;;;;;39.60;20.40;;;;;;;17.02;45.67;72477.75;5010647;28;20399;-78
2021/04/02 10:26:39;;;;;;;40.05;19.77;;;;;;;16.39;45.56;72408.72;5011229;28;20026;-82
2021/04/02 10:29:06;;;;;;;52.20;20.45;;;;;;;17.29;44.90;72511.66;5011094;28;20026;-79
2021/04/02 10:31:35;;;;;;;43.88;19.17;;;;;;;17.34;44.96;72521.03;5011004;28;20026;-79
2021/04/02 10:34:02;;;;;;;41.95;16.85;;;;;;;17.24;45.02;72506.88;5024949;28;20028;-79
2021/04/02 10:36:28;;;;;;;38.85;14.10;;;;;;;16.86;40.85;72464.75;5006935;28;20034;-82
2021/04/02 10:38:55;;;;;;;34.90;13.77;;;;;;;17.55;37.87;72544.38;5010631;28;20814;-82
2021/04/02 10:41:22;;;;;;;25.40;11.10;;;;;;;17.64;37.16;72555.75;5010528;28;20038;-80
2021/04/02 10:43:51;;;;;;;33.20;14.32;;;;;;;17.89;38.30;72581.13;5006342;28;20030;-77
2021/04/02 10:46:18;;;;;;;31.88;13.60;;;;;;;17.68;38.23;72556.53;5009986;28;20034;-76
2021/04/02 10:48:45;;;;;;;24.35;15.13;;;;;;;17.72;39.05;72564.72;5009599;28;20029;-78
2021/04/02 10:51:12;;;;;;;28.50;16.15;;;;;;;17.62;39.12;72549.97;4981880;28;20050;-79
2021/04/02 10:53:39;;;;;;;36.88;14.90;;;;;;;17.77;40.71;72565.16;4986602;28;20073;-79
2021/04/02 10:56:06;;;;;;;30.55;14.15;;;;;;;17.51;41.62;72534.63;4991310;28;20532;-78
2021/04/02 10:58:34;;;;;;;32.38;16.25;;;;;;;16.94;42.66;72474.31;4991473;28;20026;-79
2021/04/02 11:01:01;;;;;;;33.30;13.90;;;;;;;18.04;42.92;72601.88;4990578;28;20073;-77
2021/04/02 11:03:29;;;;;;;28.08;15.93;;;;;;;17.14;41.03;72494.28;4990775;28;20041;-78
2021/04/02 11:05:56;;;;;;;33.20;15.73;;;;;;;16.91;39.01;72465.78;4991298;28;20034;-78
2021/04/02 11:08:23;;;;;;;32.47;17.58;;;;;;;17.51;38.30;72540.16;4988384;28;20109;-78
2021/04/02 11:10:50;;;;;;;34.47;18.67;;;;;;;17.73;38.33;72565.94;4985285;28;20018;-77
2021/04/02 11:13:17;;;;;;;46.45;21.83;;;;;;;17.65;38.24;72553.53;4987029;28;20480;-79
2021/04/02 11:15:44;;;;;;;37.45;23.75;;;;;;;18.24;39.03;72624.63;4987918;28;20535;-77
2021/04/02 11:18:10;;;;;;;46.70;24.38;;;;;;;17.77;39.08;72570.72;4990359;28;20018;-78
2021/04/02 11:20:37;;;;;;;55.83;26.80;;;;;;;17.58;40.31;72548.56;4990929;28;20093;-83
2021/04/02 11:23:04;;;;;;;46.53;27.02;;;;;;;18.10;40.41;72608.47;4978505;28;20027;-79
2021/04/02 11:25:31;;;;;;;44.28;24.90;;;;;;;17.90;40.60;72585.69;4981664;28;20035;-77
2021/04/02 11:27:58;;;;;;;57.67;25.58;;;;;;;18.05;41.57;72600.28;4984934;28;20031;-77
2021/04/02 11:30:25;;;;;;;52.50;25.60;;;;;;;18.21;41.71;72621.03;4981575;28;20019;-78
2021/04/02 11:32:52;;;;;;;38.25;22.42;;;;;;;17.76;38.88;72568.91;4984699;28;20077;-78
2021/04/02 11:35:19;;;;;;;47.53;25.50;;;;;;;18.23;39.52;72622.84;4984595;28;20085;-78
2021/04/02 11:37:46;;;;;;;52.13;30.73;;;;;;;18.14;39.45;72612.66;4994148;28;20105;-78